sensor_id;sensor_type;location;lat;lon;timestamp;P1;durP1;ratioP1;P2;durP2;ratioP2
10309;SDS011;5200;43.236;27.986;2022-08-01T00:00:20;9.48;;;4.47;;
10309;SDS011;5200;43.236;27.986;2022-08-01T00:02:47;7.53;;;4.28;;
10309;SDS011;5200;43.236;27.986;2022-08-01T00:05:14;4.90;;;4.43;;
10309;SDS011;5200;43.236;27.986;2022-08-01T00:07:43;5.55;;;5.00;;
10309;SDS011;5200;43.236;27.986;2022-08-01T00:10:10;7.43;;;5.10;;
10309;SDS011;5200;43.236;27.986;2022-08-01T00:12:39;8.50;;;5.65;;
10309;SDS011;5200;43.236;27.986;2022-08-01T00:15:07;5.47;;;4.90;;
10309;SDS011;5200;43.236;27.986;2022-08-01T00:17:37;7.10;;;5.93;;
10309;SDS011;5200;43.236;27.986;2022-08-01T00:20:05;6.53;;;5.30;;
10309;SDS011;5200;43.236;27.986;2022-08-01T00:22:34;6.93;;;5.32;;
10309;SDS011;5200;43.236;27.986;2022-08-01T00:25:02;8.38;;;5.20;;
10309;SDS011;5200;43.236;27.986;2022-08-01T00:27:30;7.45;;;5.38;;
10309;SDS011;5200;43.236;27.986;2022-08-01T00:29:57;5.60;;;4.97;;
10309;SDS011;5200;43.236;27.986;2022-08-01T00:32:24;7.82;;;5.57;;
10309;SDS011;5200;43.236;27.986;2022-08-01T00:34:51;8.27;;;6.07;;
10309;SDS011;5200;43.236;27.986;2022-08-01T00:37:18;7.25;;;5.20;;
10309;SDS011;5200;43.236;27.986;2022-08-01T00:39:45;8.32;;;5.80;;
10309;SDS011;5200;43.236;27.986;2022-08-01T00:42:14;8.65;;;5.80;;
10309;SDS011;5200;43.236;27.986;2022-08-01T00:44:40;7.68;;;5.35;;
10309;SDS011;5200;43.236;27.986;2022-08-01T00:47:08;6.70;;;4.70;;
10309;SDS011;5200;43.236;27.986;2022-08-01T00:49:35;5.85;;;4.82;;
10309;SDS011;5200;43.236;27.986;2022-08-01T00:52:02;5.55;;;4.75;;
10309;SDS011;5200;43.236;27.986;2022-08-01T00:54:31;4.75;;;3.95;;
10309;SDS011;5200;43.236;27.986;2022-08-01T00:56:58;4.80;;;4.38;;
10309;SDS011;5200;43.236;27.986;2022-08-01T00:59:27;4.90;;;4.00;;
10309;SDS011;5200;43.236;27.986;2022-08-01T01:01:54;7.07;;;3.97;;
10309;SDS011;5200;43.236;27.986;2022-08-01T01:04:21;5.45;;;4.32;;
10309;SDS011;5200;43.236;27.986;2022-08-01T01:06:51;6.10;;;3.90;;
10309;SDS011;5200;43.236;27.986;2022-08-01T01:09:27;7.15;;;4.70;;
10309;SDS011;5200;43.236;27.986;2022-08-01T01:12:07;4.43;;;3.92;;
10309;SDS011;5200;43.236;27.986;2022-08-01T01:14:45;6.53;;;3.78;;
10309;SDS011;5200;43.236;27.986;2022-08-01T01:17:19;3.70;;;3.40;;
10309;SDS011;5200;43.236;27.986;2022-08-01T01:19:54;4.18;;;3.53;;
10309;SDS011;5200;43.236;27.986;2022-08-01T01:22:30;3.72;;;3.42;;
10309;SDS011;5200;43.236;27.986;2022-08-01T01:25:17;3.53;;;3.20;;
10309;SDS011;5200;43.236;27.986;2022-08-01T01:27:57;3.88;;;3.58;;
10309;SDS011;5200;43.236;27.986;2022-08-01T01:30:36;5.65;;;3.50;;
10309;SDS011;5200;43.236;27.986;2022-08-01T01:33:06;5.55;;;3.35;;
10309;SDS011;5200;43.236;27.986;2022-08-01T01:35:37;4.50;;;3.65;;
10309;SDS011;5200;43.236;27.986;2022-08-01T01:38:10;3.88;;;3.47;;
10309;SDS011;5200;43.236;27.986;2022-08-01T01:40:43;3.40;;;3.10;;
10309;SDS011;5200;43.236;27.986;2022-08-01T01:43:11;3.38;;;3.08;;
10309;SDS011;5200;43.236;27.986;2022-08-01T01:45:42;3.40;;;3.08;;
10309;SDS011;5200;43.236;27.986;2022-08-01T01:48:12;5.57;;;3.10;;
10309;SDS011;5200;43.236;27.986;2022-08-01T01:50:42;3.35;;;2.75;;
10309;SDS011;5200;43.236;27.986;2022-08-01T01:53:12;4.70;;;2.70;;
10309;SDS011;5200;43.236;27.986;2022-08-01T01:55:40;3.17;;;2.97;;
10309;SDS011;5200;43.236;27.986;2022-08-01T01:58:09;3.72;;;2.97;;
10309;SDS011;5200;43.236;27.986;2022-08-01T02:00:39;3.08;;;2.88;;
10309;SDS011;5200;43.236;27.986;2022-08-01T02:03:09;4.90;;;2.65;;
10309;SDS011;5200;43.236;27.986;2022-08-01T02:05:37;3.85;;;3.10;;
10309;SDS011;5200;43.236;27.986;2022-08-01T02:08:06;3.33;;;3.03;;
10309;SDS011;5200;43.236;27.986;2022-08-01T02:10:36;2.88;;;2.67;;
10309;SDS011;5200;43.236;27.986;2022-08-01T02:13:05;2.80;;;2.60;;
10309;SDS011;5200;43.236;27.986;2022-08-01T02:15:33;3.08;;;2.80;;
10309;SDS011;5200;43.236;27.986;2022-08-01T02:18:05;4.38;;;3.05;;
10309;SDS011;5200;43.236;27.986;2022-08-01T02:20:34;3.50;;;3.00;;
10309;SDS011;5200;43.236;27.986;2022-08-01T02:23:05;5.15;;;2.92;;
10309;SDS011;5200;43.236;27.986;2022-08-01T02:25:36;2.80;;;2.58;;
10309;SDS011;5200;43.236;27.986;2022-08-01T02:28:09;3.60;;;2.55;;
10309;SDS011;5200;43.236;27.986;2022-08-01T02:30:41;2.88;;;2.58;;
10309;SDS011;5200;43.236;27.986;2022-08-01T02:33:14;2.78;;;2.55;;
10309;SDS011;5200;43.236;27.986;2022-08-01T02:35:45;4.65;;;2.70;;
10309;SDS011;5200;43.236;27.986;2022-08-01T02:38:16;3.60;;;2.80;;
10309;SDS011;5200;43.236;27.986;2022-08-01T02:40:45;3.67;;;2.78;;
10309;SDS011;5200;43.236;27.986;2022-08-01T02:43:15;3.00;;;2.58;;
10309;SDS011;5200;43.236;27.986;2022-08-01T02:45:47;2.95;;;2.40;;
10309;SDS011;5200;43.236;27.986;2022-08-01T02:48:19;2.65;;;2.45;;
10309;SDS011;5200;43.236;27.986;2022-08-01T02:50:50;2.67;;;2.40;;
10309;SDS011;5200;43.236;27.986;2022-08-01T02:53:19;3.25;;;2.78;;
10309;SDS011;5200;43.236;27.986;2022-08-01T02:55:49;5.03;;;2.63;;
10309;SDS011;5200;43.236;27.986;2022-08-01T02:58:18;3.28;;;2.35;;
10309;SDS011;5200;43.236;27.986;2022-08-01T03:00:50;4.10;;;2.47;;
10309;SDS011;5200;43.236;27.986;2022-08-01T03:03:19;3.28;;;2.30;;
10309;SDS011;5200;43.236;27.986;2022-08-01T03:05:47;2.70;;;2.50;;
10309;SDS011;5200;43.236;27.986;2022-08-01T03:08:14;2.72;;;2.53;;
10309;SDS011;5200;43.236;27.986;2022-08-01T03:10:44;2.90;;;2.60;;
10309;SDS011;5200;43.236;27.986;2022-08-01T03:13:13;3.63;;;2.70;;
10309;SDS011;5200;43.236;27.986;2022-08-01T03:15:42;4.05;;;2.40;;
10309;SDS011;5200;43.236;27.986;2022-08-01T03:18:10;3.05;;;2.20;;
10309;SDS011;5200;43.236;27.986;2022-08-01T03:20:41;4.18;;;2.17;;
10309;SDS011;5200;43.236;27.986;2022-08-01T03:23:10;3.58;;;2.10;;
10309;SDS011;5200;43.236;27.986;2022-08-01T03:25:39;2.22;;;2.00;;
10309;SDS011;5200;43.236;27.986;2022-08-01T03:28:08;2.40;;;2.17;;
10309;SDS011;5200;43.236;27.986;2022-08-01T03:30:38;1.95;;;1.77;;
10309;SDS011;5200;43.236;27.986;2022-08-01T03:33:07;2.22;;;1.98;;
10309;SDS011;5200;43.236;27.986;2022-08-01T03:35:36;1.95;;;1.85;;
10309;SDS011;5200;43.236;27.986;2022-08-01T03:38:08;5.03;;;1.77;;
10309;SDS011;5200;43.236;27.986;2022-08-01T03:40:37;3.08;;;1.67;;
10309;SDS011;5200;43.236;27.986;2022-08-01T03:43:07;3.60;;;2.38;;
10309;SDS011;5200;43.236;27.986;2022-08-01T03:45:43;3.55;;;1.75;;
10309;SDS011;5200;43.236;27.986;2022-08-01T03:48:16;2.83;;;1.52;;
10309;SDS011;5200;43.236;27.986;2022-08-01T03:50:45;1.80;;;1.40;;
10309;SDS011;5200;43.236;27.986;2022-08-01T03:53:19;2.22;;;1.55;;
10309;SDS011;5200;43.236;27.986;2022-08-01T03:55:48;3.60;;;1.45;;
10309;SDS011;5200;43.236;27.986;2022-08-01T03:58:16;1.40;;;1.30;;
10309;SDS011;5200;43.236;27.986;2022-08-01T04:00:44;2.08;;;1.20;;
10309;SDS011;5200;43.236;27.986;2022-08-01T04:03:13;1.33;;;1.25;;
10309;SDS011;5200;43.236;27.986;2022-08-01T04:05:41;1.73;;;1.63;;
10309;SDS011;5200;43.236;27.986;2022-08-01T04:08:08;4.05;;;1.40;;
10309;SDS011;5200;43.236;27.986;2022-08-01T04:10:37;1.92;;;1.33;;
10309;SDS011;5200;43.236;27.986;2022-08-01T04:13:04;2.13;;;1.70;;
10309;SDS011;5200;43.236;27.986;2022-08-01T04:15:31;2.58;;;1.27;;
10309;SDS011;5200;43.236;27.986;2022-08-01T04:17:58;2.22;;;1.38;;
10309;SDS011;5200;43.236;27.986;2022-08-01T04:20:25;4.45;;;1.33;;
10309;SDS011;5200;43.236;27.986;2022-08-01T04:22:53;2.92;;;1.50;;
10309;SDS011;5200;43.236;27.986;2022-08-01T04:25:21;3.45;;;1.48;;
10309;SDS011;5200;43.236;27.986;2022-08-01T04:27:53;1.95;;;1.38;;
10309;SDS011;5200;43.236;27.986;2022-08-01T04:30:22;5.75;;;1.48;;
10309;SDS011;5200;43.236;27.986;2022-08-01T04:32:54;1.35;;;1.10;;
10309;SDS011;5200;43.236;27.986;2022-08-01T04:35:23;3.60;;;1.40;;
10309;SDS011;5200;43.236;27.986;2022-08-01T04:37:52;1.48;;;1.25;;
10309;SDS011;5200;43.236;27.986;2022-08-01T04:40:21;2.75;;;1.10;;
10309;SDS011;5200;43.236;27.986;2022-08-01T04:42:49;1.75;;;1.50;;
10309;SDS011;5200;43.236;27.986;2022-08-01T04:45:17;9.85;;;1.55;;
10309;SDS011;5200;43.236;27.986;2022-08-01T04:47:45;1.65;;;1.00;;
10309;SDS011;5200;43.236;27.986;2022-08-01T04:50:13;5.57;;;1.48;;
10309;SDS011;5200;43.236;27.986;2022-08-01T04:52:40;3.50;;;1.92;;
10309;SDS011;5200;43.236;27.986;2022-08-01T04:55:08;3.53;;;1.25;;
10309;SDS011;5200;43.236;27.986;2022-08-01T04:57:37;2.25;;;1.50;;
10309;SDS011;5200;43.236;27.986;2022-08-01T05:00:07;3.08;;;1.27;;
10309;SDS011;5200;43.236;27.986;2022-08-01T05:02:37;2.97;;;1.90;;
10309;SDS011;5200;43.236;27.986;2022-08-01T05:05:04;1.67;;;1.45;;
10309;SDS011;5200;43.236;27.986;2022-08-01T05:07:32;12.15;;;1.60;;
10309;SDS011;5200;43.236;27.986;2022-08-01T05:10:01;1.40;;;1.30;;
10309;SDS011;5200;43.236;27.986;2022-08-01T05:12:28;1.30;;;1.20;;
10309;SDS011;5200;43.236;27.986;2022-08-01T05:14:56;2.38;;;1.52;;
10309;SDS011;5200;43.236;27.986;2022-08-01T05:17:23;1.52;;;1.40;;
10309;SDS011;5200;43.236;27.986;2022-08-01T05:19:52;1.77;;;1.40;;
10309;SDS011;5200;43.236;27.986;2022-08-01T05:22:19;2.95;;;1.50;;
10309;SDS011;5200;43.236;27.986;2022-08-01T05:24:47;1.67;;;1.58;;
10309;SDS011;5200;43.236;27.986;2022-08-01T05:27:14;3.08;;;1.30;;
10309;SDS011;5200;43.236;27.986;2022-08-01T05:29:41;2.08;;;1.45;;
10309;SDS011;5200;43.236;27.986;2022-08-01T05:32:08;2.53;;;1.42;;
10309;SDS011;5200;43.236;27.986;2022-08-01T05:34:35;3.00;;;1.40;;
10309;SDS011;5200;43.236;27.986;2022-08-01T05:37:04;3.55;;;1.38;;
10309;SDS011;5200;43.236;27.986;2022-08-01T05:39:32;1.70;;;1.40;;
10309;SDS011;5200;43.236;27.986;2022-08-01T05:41:59;1.60;;;1.50;;
10309;SDS011;5200;43.236;27.986;2022-08-01T05:44:26;2.80;;;1.30;;
10309;SDS011;5200;43.236;27.986;2022-08-01T05:46:53;5.75;;;1.50;;
10309;SDS011;5200;43.236;27.986;2022-08-01T05:49:20;1.38;;;1.27;;
10309;SDS011;5200;43.236;27.986;2022-08-01T05:51:47;3.92;;;1.58;;
10309;SDS011;5200;43.236;27.986;2022-08-01T05:54:15;8.48;;;1.65;;
10309;SDS011;5200;43.236;27.986;2022-08-01T05:56:42;1.50;;;1.20;;
10309;SDS011;5200;43.236;27.986;2022-08-01T05:59:09;3.78;;;1.30;;
10309;SDS011;5200;43.236;27.986;2022-08-01T06:01:36;4.10;;;1.30;;
10309;SDS011;5200;43.236;27.986;2022-08-01T06:04:03;3.50;;;1.80;;
10309;SDS011;5200;43.236;27.986;2022-08-01T06:06:30;3.22;;;1.42;;
10309;SDS011;5200;43.236;27.986;2022-08-01T06:08:57;6.00;;;1.48;;
10309;SDS011;5200;43.236;27.986;2022-08-01T06:11:25;2.50;;;1.38;;
10309;SDS011;5200;43.236;27.986;2022-08-01T06:13:52;2.47;;;1.30;;
10309;SDS011;5200;43.236;27.986;2022-08-01T06:16:19;1.23;;;1.15;;
10309;SDS011;5200;43.236;27.986;2022-08-01T06:18:46;2.60;;;1.40;;
10309;SDS011;5200;43.236;27.986;2022-08-01T06:21:13;2.35;;;1.15;;
10309;SDS011;5200;43.236;27.986;2022-08-01T06:23:40;1.25;;;0.90;;
10309;SDS011;5200;43.236;27.986;2022-08-01T06:26:07;2.03;;;1.30;;
10309;SDS011;5200;43.236;27.986;2022-08-01T06:28:36;1.23;;;1.10;;
10309;SDS011;5200;43.236;27.986;2022-08-01T06:31:03;2.25;;;1.13;;
10309;SDS011;5200;43.236;27.986;2022-08-01T06:33:30;2.85;;;1.20;;
10309;SDS011;5200;43.236;27.986;2022-08-01T06:35:57;1.27;;;0.90;;
10309;SDS011;5200;43.236;27.986;2022-08-01T06:38:24;1.38;;;0.98;;
10309;SDS011;5200;43.236;27.986;2022-08-01T06:40:51;1.65;;;1.00;;
10309;SDS011;5200;43.236;27.986;2022-08-01T06:43:18;2.08;;;1.17;;
10309;SDS011;5200;43.236;27.986;2022-08-01T06:45:47;1.08;;;1.08;;
10309;SDS011;5200;43.236;27.986;2022-08-01T06:48:14;1.65;;;1.00;;
10309;SDS011;5200;43.236;27.986;2022-08-01T06:50:41;1.20;;;1.10;;
10309;SDS011;5200;43.236;27.986;2022-08-01T06:53:08;1.48;;;0.70;;
10309;SDS011;5200;43.236;27.986;2022-08-01T06:55:35;1.35;;;0.80;;
10309;SDS011;5200;43.236;27.986;2022-08-01T06:58:03;1.92;;;1.10;;
10309;SDS011;5200;43.236;27.986;2022-08-01T07:00:30;0.82;;;0.82;;
10309;SDS011;5200;43.236;27.986;2022-08-01T07:02:59;4.32;;;1.20;;
10309;SDS011;5200;43.236;27.986;2022-08-01T07:05:26;2.55;;;1.33;;
10309;SDS011;5200;43.236;27.986;2022-08-01T07:07:55;0.85;;;0.85;;
10309;SDS011;5200;43.236;27.986;2022-08-01T07:10:22;2.40;;;1.10;;
10309;SDS011;5200;43.236;27.986;2022-08-01T07:12:52;3.17;;;1.15;;
10309;SDS011;5200;43.236;27.986;2022-08-01T07:15:19;3.80;;;1.20;;
10309;SDS011;5200;43.236;27.986;2022-08-01T07:17:51;4.63;;;0.95;;
10309;SDS011;5200;43.236;27.986;2022-08-01T07:20:20;0.70;;;0.70;;
10309;SDS011;5200;43.236;27.986;2022-08-01T07:22:47;2.03;;;1.30;;
10309;SDS011;5200;43.236;27.986;2022-08-01T07:25:14;0.90;;;0.90;;
10309;SDS011;5200;43.236;27.986;2022-08-01T07:27:41;3.13;;;1.00;;
10309;SDS011;5200;43.236;27.986;2022-08-01T07:30:08;6.25;;;1.27;;
10309;SDS011;5200;43.236;27.986;2022-08-01T07:32:35;2.22;;;1.30;;
10309;SDS011;5200;43.236;27.986;2022-08-01T07:35:02;2.05;;;1.55;;
10309;SDS011;5200;43.236;27.986;2022-08-01T07:37:31;1.10;;;1.00;;
10309;SDS011;5200;43.236;27.986;2022-08-01T07:39:58;2.90;;;1.00;;
10309;SDS011;5200;43.236;27.986;2022-08-01T07:42:25;2.25;;;0.98;;
10309;SDS011;5200;43.236;27.986;2022-08-01T07:44:52;1.52;;;1.35;;
10309;SDS011;5200;43.236;27.986;2022-08-01T07:47:23;2.80;;;1.15;;
10309;SDS011;5200;43.236;27.986;2022-08-01T07:49:50;0.85;;;0.85;;
10309;SDS011;5200;43.236;27.986;2022-08-01T07:52:17;1.05;;;0.95;;
10309;SDS011;5200;43.236;27.986;2022-08-01T07:54:45;1.85;;;0.85;;
10309;SDS011;5200;43.236;27.986;2022-08-01T07:57:12;3.10;;;0.77;;
10309;SDS011;5200;43.236;27.986;2022-08-01T07:59:39;1.02;;;0.90;;
10309;SDS011;5200;43.236;27.986;2022-08-01T08:02:06;1.17;;;0.88;;
10309;SDS011;5200;43.236;27.986;2022-08-01T08:04:33;2.78;;;1.05;;
10309;SDS011;5200;43.236;27.986;2022-08-01T08:07:00;0.70;;;0.70;;
10309;SDS011;5200;43.236;27.986;2022-08-01T08:09:27;1.23;;;1.00;;
10309;SDS011;5200;43.236;27.986;2022-08-01T08:11:55;1.17;;;0.88;;
10309;SDS011;5200;43.236;27.986;2022-08-01T08:14:22;2.38;;;0.80;;
10309;SDS011;5200;43.236;27.986;2022-08-01T08:16:50;1.17;;;1.08;;
10309;SDS011;5200;43.236;27.986;2022-08-01T08:19:17;2.60;;;0.63;;
10309;SDS011;5200;43.236;27.986;2022-08-01T08:21:53;2.83;;;0.73;;
10309;SDS011;5200;43.236;27.986;2022-08-01T08:24:20;1.20;;;0.93;;
10309;SDS011;5200;43.236;27.986;2022-08-01T08:26:50;1.85;;;0.90;;
10309;SDS011;5200;43.236;27.986;2022-08-01T08:29:21;2.03;;;0.65;;
10309;SDS011;5200;43.236;27.986;2022-08-01T08:31:51;2.30;;;0.73;;
10309;SDS011;5200;43.236;27.986;2022-08-01T08:34:18;0.80;;;0.80;;
10309;SDS011;5200;43.236;27.986;2022-08-01T08:36:45;0.75;;;0.75;;
10309;SDS011;5200;43.236;27.986;2022-08-01T08:39:13;0.60;;;0.60;;
10309;SDS011;5200;43.236;27.986;2022-08-01T08:41:40;1.88;;;0.82;;
10309;SDS011;5200;43.236;27.986;2022-08-01T08:44:08;1.23;;;0.77;;
10309;SDS011;5200;43.236;27.986;2022-08-01T08:46:40;1.42;;;0.90;;
10309;SDS011;5200;43.236;27.986;2022-08-01T08:49:07;1.85;;;0.50;;
10309;SDS011;5200;43.236;27.986;2022-08-01T08:51:37;1.05;;;0.90;;
10309;SDS011;5200;43.236;27.986;2022-08-01T08:54:06;0.90;;;0.90;;
10309;SDS011;5200;43.236;27.986;2022-08-01T08:56:34;0.60;;;0.60;;
10309;SDS011;5200;43.236;27.986;2022-08-01T08:59:02;2.08;;;1.73;;
10309;SDS011;5200;43.236;27.986;2022-08-01T09:01:30;2.92;;;1.23;;
10309;SDS011;5200;43.236;27.986;2022-08-01T09:04:01;2.20;;;1.48;;
10309;SDS011;5200;43.236;27.986;2022-08-01T09:06:28;1.40;;;1.30;;
10309;SDS011;5200;43.236;27.986;2022-08-01T09:08:56;1.50;;;0.95;;
10309;SDS011;5200;43.236;27.986;2022-08-01T09:11:23;1.05;;;1.05;;
10309;SDS011;5200;43.236;27.986;2022-08-01T09:14:04;2.95;;;1.40;;
10309;SDS011;5200;43.236;27.986;2022-08-01T09:16:35;0.75;;;0.75;;
10309;SDS011;5200;43.236;27.986;2022-08-01T09:19:12;1.48;;;0.63;;
10309;SDS011;5200;43.236;27.986;2022-08-01T09:21:40;1.40;;;0.50;;
10309;SDS011;5200;43.236;27.986;2022-08-01T09:24:22;1.10;;;0.55;;
10309;SDS011;5200;43.236;27.986;2022-08-01T09:26:50;1.00;;;0.90;;
10309;SDS011;5200;43.236;27.986;2022-08-01T09:29:18;2.15;;;1.10;;
10309;SDS011;5200;43.236;27.986;2022-08-01T09:31:47;0.85;;;0.85;;
10309;SDS011;5200;43.236;27.986;2022-08-01T09:34:16;1.55;;;0.80;;
10309;SDS011;5200;43.236;27.986;2022-08-01T09:36:51;1.90;;;1.13;;
10309;SDS011;5200;43.236;27.986;2022-08-01T09:39:21;0.90;;;0.90;;
10309;SDS011;5200;43.236;27.986;2022-08-01T09:41:51;2.60;;;0.90;;
10309;SDS011;5200;43.236;27.986;2022-08-01T09:44:18;1.38;;;1.10;;
10309;SDS011;5200;43.236;27.986;2022-08-01T09:46:49;2.78;;;0.90;;
10309;SDS011;5200;43.236;27.986;2022-08-01T09:49:28;0.90;;;0.88;;
10309;SDS011;5200;43.236;27.986;2022-08-01T09:51:56;3.60;;;1.10;;
10309;SDS011;5200;43.236;27.986;2022-08-01T09:54:28;1.48;;;0.82;;
10309;SDS011;5200;43.236;27.986;2022-08-01T09:57:07;3.42;;;0.52;;
10309;SDS011;5200;43.236;27.986;2022-08-01T09:59:35;0.95;;;0.90;;
10309;SDS011;5200;43.236;27.986;2022-08-01T10:02:05;1.20;;;1.10;;
10309;SDS011;5200;43.236;27.986;2022-08-01T10:04:34;3.40;;;1.80;;
10309;SDS011;5200;43.236;27.986;2022-08-01T10:07:05;1.45;;;1.35;;
10309;SDS011;5200;43.236;27.986;2022-08-01T10:09:35;1.00;;;1.00;;
10309;SDS011;5200;43.236;27.986;2022-08-01T10:12:02;1.92;;;0.90;;
10309;SDS011;5200;43.236;27.986;2022-08-01T10:14:30;2.30;;;1.10;;
10309;SDS011;5200;43.236;27.986;2022-08-01T10:16:59;1.30;;;1.20;;
10309;SDS011;5200;43.236;27.986;2022-08-01T10:19:28;0.98;;;0.90;;
10309;SDS011;5200;43.236;27.986;2022-08-01T10:21:59;1.00;;;0.90;;
10309;SDS011;5200;43.236;27.986;2022-08-01T10:24:28;1.10;;;0.80;;
10309;SDS011;5200;43.236;27.986;2022-08-01T10:26:57;1.48;;;0.80;;
10309;SDS011;5200;43.236;27.986;2022-08-01T10:29:30;3.70;;;1.20;;
10309;SDS011;5200;43.236;27.986;2022-08-01T10:32:01;2.97;;;1.27;;
10309;SDS011;5200;43.236;27.986;2022-08-01T10:34:28;6.10;;;1.40;;
10309;SDS011;5200;43.236;27.986;2022-08-01T10:36:59;0.75;;;0.75;;
10309;SDS011;5200;43.236;27.986;2022-08-01T10:39:26;1.67;;;1.58;;
10309;SDS011;5200;43.236;27.986;2022-08-01T10:41:55;4.80;;;0.95;;
10309;SDS011;5200;43.236;27.986;2022-08-01T10:44:22;4.32;;;1.10;;
10309;SDS011;5200;43.236;27.986;2022-08-01T10:46:51;3.17;;;0.80;;
10309;SDS011;5200;43.236;27.986;2022-08-01T10:49:22;5.75;;;1.10;;
10309;SDS011;5200;43.236;27.986;2022-08-01T10:51:53;3.25;;;0.70;;
10309;SDS011;5200;43.236;27.986;2022-08-01T10:54:25;4.20;;;1.30;;
10309;SDS011;5200;43.236;27.986;2022-08-01T10:56:52;2.95;;;1.00;;
10309;SDS011;5200;43.236;27.986;2022-08-01T10:59:22;1.85;;;0.80;;
10309;SDS011;5200;43.236;27.986;2022-08-01T11:01:57;1.42;;;1.00;;
10309;SDS011;5200;43.236;27.986;2022-08-01T11:04:39;4.03;;;0.80;;
10309;SDS011;5200;43.236;27.986;2022-08-01T11:07:16;1.00;;;0.90;;
10309;SDS011;5200;43.236;27.986;2022-08-01T11:09:47;3.22;;;1.02;;
10309;SDS011;5200;43.236;27.986;2022-08-01T11:12:25;1.10;;;1.00;;
10309;SDS011;5200;43.236;27.986;2022-08-01T11:17:54;1.50;;;1.10;;
10309;SDS011;5200;43.236;27.986;2022-08-01T11:20:21;1.45;;;1.20;;
10309;SDS011;5200;43.236;27.986;2022-08-01T11:26:10;1.00;;;0.77;;
10309;SDS011;5200;43.236;27.986;2022-08-01T11:28:39;1.08;;;0.90;;
10309;SDS011;5200;43.236;27.986;2022-08-01T11:31:28;2.30;;;0.82;;
10309;SDS011;5200;43.236;27.986;2022-08-01T11:33:57;1.30;;;1.10;;
10309;SDS011;5200;43.236;27.986;2022-08-01T11:36:24;1.05;;;1.05;;
10309;SDS011;5200;43.236;27.986;2022-08-01T11:39:11;1.00;;;0.80;;
10309;SDS011;5200;43.236;27.986;2022-08-01T11:41:44;2.35;;;1.05;;
10309;SDS011;5200;43.236;27.986;2022-08-01T11:44:13;0.80;;;0.80;;
10309;SDS011;5200;43.236;27.986;2022-08-01T11:46:49;2.75;;;1.17;;
10309;SDS011;5200;43.236;27.986;2022-08-01T11:52:15;3.67;;;1.05;;
10309;SDS011;5200;43.236;27.986;2022-08-01T11:54:44;3.25;;;1.10;;
10309;SDS011;5200;43.236;27.986;2022-08-01T11:57:17;2.13;;;0.82;;
10309;SDS011;5200;43.236;27.986;2022-08-01T11:59:46;4.68;;;1.02;;
10309;SDS011;5200;43.236;27.986;2022-08-01T12:02:23;0.75;;;0.70;;
10309;SDS011;5200;43.236;27.986;2022-08-01T12:04:53;0.77;;;0.77;;
10309;SDS011;5200;43.236;27.986;2022-08-01T12:07:22;3.92;;;1.10;;
10309;SDS011;5200;43.236;27.986;2022-08-01T12:09:56;1.02;;;0.90;;
10309;SDS011;5200;43.236;27.986;2022-08-01T12:12:25;0.90;;;0.90;;
10309;SDS011;5200;43.236;27.986;2022-08-01T12:14:53;4.80;;;0.80;;
10309;SDS011;5200;43.236;27.986;2022-08-01T12:17:34;0.80;;;0.80;;
10309;SDS011;5200;43.236;27.986;2022-08-01T12:20:03;3.17;;;1.10;;
10309;SDS011;5200;43.236;27.986;2022-08-01T12:22:31;3.05;;;0.90;;
10309;SDS011;5200;43.236;27.986;2022-08-01T12:25:04;2.38;;;1.10;;
10309;SDS011;5200;43.236;27.986;2022-08-01T12:27:33;2.35;;;0.85;;
10309;SDS011;5200;43.236;27.986;2022-08-01T12:30:04;2.40;;;0.73;;
10309;SDS011;5200;43.236;27.986;2022-08-01T12:32:32;1.00;;;1.00;;
10309;SDS011;5200;43.236;27.986;2022-08-01T12:35:02;1.60;;;1.05;;
10309;SDS011;5200;43.236;27.986;2022-08-01T12:37:31;1.85;;;1.20;;
10309;SDS011;5200;43.236;27.986;2022-08-01T12:40:00;3.83;;;1.00;;
10309;SDS011;5200;43.236;27.986;2022-08-01T12:42:29;1.05;;;0.98;;
10309;SDS011;5200;43.236;27.986;2022-08-01T12:44:57;0.60;;;0.60;;
10309;SDS011;5200;43.236;27.986;2022-08-01T12:47:24;1.52;;;0.85;;
10309;SDS011;5200;43.236;27.986;2022-08-01T12:49:51;2.75;;;1.20;;
10309;SDS011;5200;43.236;27.986;2022-08-01T12:52:18;0.93;;;0.77;;
10309;SDS011;5200;43.236;27.986;2022-08-01T12:55:03;3.53;;;1.02;;
10309;SDS011;5200;43.236;27.986;2022-08-01T12:57:33;1.17;;;0.90;;
10309;SDS011;5200;43.236;27.986;2022-08-01T13:00:06;1.75;;;0.98;;
10309;SDS011;5200;43.236;27.986;2022-08-01T13:02:39;1.90;;;1.05;;
10309;SDS011;5200;43.236;27.986;2022-08-01T13:05:07;1.25;;;1.00;;
10309;SDS011;5200;43.236;27.986;2022-08-01T13:07:36;1.58;;;1.08;;
10309;SDS011;5200;43.236;27.986;2022-08-01T13:10:05;1.33;;;1.20;;
10309;SDS011;5200;43.236;27.986;2022-08-01T13:12:33;2.15;;;0.85;;
10309;SDS011;5200;43.236;27.986;2022-08-01T13:17:58;2.42;;;1.33;;
10309;SDS011;5200;43.236;27.986;2022-08-01T13:20:27;0.70;;;0.70;;
10309;SDS011;5200;43.236;27.986;2022-08-01T13:23:09;1.38;;;1.05;;
10309;SDS011;5200;43.236;27.986;2022-08-01T13:25:46;1.88;;;1.05;;
10309;SDS011;5200;43.236;27.986;2022-08-01T13:28:15;1.20;;;1.10;;
10309;SDS011;5200;43.236;27.986;2022-08-01T13:30:50;1.00;;;1.00;;
10309;SDS011;5200;43.236;27.986;2022-08-01T13:33:19;2.05;;;1.00;;
10309;SDS011;5200;43.236;27.986;2022-08-01T13:35:48;5.70;;;1.15;;
10309;SDS011;5200;43.236;27.986;2022-08-01T13:38:16;3.28;;;1.40;;
10309;SDS011;5200;43.236;27.986;2022-08-01T13:40:44;1.10;;;1.00;;
10309;SDS011;5200;43.236;27.986;2022-08-01T13:43:12;1.27;;;0.95;;
10309;SDS011;5200;43.236;27.986;2022-08-01T13:45:39;1.25;;;0.93;;
10309;SDS011;5200;43.236;27.986;2022-08-01T13:48:06;0.90;;;0.90;;
10309;SDS011;5200;43.236;27.986;2022-08-01T13:50:35;0.60;;;0.60;;
10309;SDS011;5200;43.236;27.986;2022-08-01T13:53:02;2.05;;;0.80;;
10309;SDS011;5200;43.236;27.986;2022-08-01T13:55:29;1.33;;;1.00;;
10309;SDS011;5200;43.236;27.986;2022-08-01T13:57:56;1.17;;;1.08;;
10309;SDS011;5200;43.236;27.986;2022-08-01T14:00:22;1.38;;;0.75;;
10309;SDS011;5200;43.236;27.986;2022-08-01T14:02:49;0.93;;;0.93;;
10309;SDS011;5200;43.236;27.986;2022-08-01T14:05:16;1.20;;;0.90;;
10309;SDS011;5200;43.236;27.986;2022-08-01T14:07:45;2.08;;;1.52;;
10309;SDS011;5200;43.236;27.986;2022-08-01T14:10:12;1.98;;;1.23;;
10309;SDS011;5200;43.236;27.986;2022-08-01T14:12:39;2.53;;;1.30;;
10309;SDS011;5200;43.236;27.986;2022-08-01T14:15:06;1.92;;;1.30;;
10309;SDS011;5200;43.236;27.986;2022-08-01T14:17:34;1.52;;;1.42;;
10309;SDS011;5200;43.236;27.986;2022-08-01T14:20:01;1.75;;;1.17;;
10309;SDS011;5200;43.236;27.986;2022-08-01T14:22:29;2.20;;;1.35;;
10309;SDS011;5200;43.236;27.986;2022-08-01T14:24:58;7.55;;;1.52;;
10309;SDS011;5200;43.236;27.986;2022-08-01T14:27:25;1.63;;;1.42;;
10309;SDS011;5200;43.236;27.986;2022-08-01T14:29:55;3.65;;;1.58;;
10309;SDS011;5200;43.236;27.986;2022-08-01T14:32:22;1.42;;;1.08;;
10309;SDS011;5200;43.236;27.986;2022-08-01T14:34:49;1.35;;;1.15;;
10309;SDS011;5200;43.236;27.986;2022-08-01T14:37:16;2.45;;;1.00;;
10309;SDS011;5200;43.236;27.986;2022-08-01T14:39:43;1.75;;;1.08;;
10309;SDS011;5200;43.236;27.986;2022-08-01T14:42:11;2.13;;;1.50;;
10309;SDS011;5200;43.236;27.986;2022-08-01T14:44:38;2.58;;;1.20;;
10309;SDS011;5200;43.236;27.986;2022-08-01T14:47:05;1.75;;;1.10;;
10309;SDS011;5200;43.236;27.986;2022-08-01T14:49:32;1.63;;;1.33;;
10309;SDS011;5200;43.236;27.986;2022-08-01T14:51:58;4.57;;;2.00;;
10309;SDS011;5200;43.236;27.986;2022-08-01T14:54:26;2.47;;;2.28;;
10309;SDS011;5200;43.236;27.986;2022-08-01T14:56:52;3.65;;;2.22;;
10309;SDS011;5200;43.236;27.986;2022-08-01T14:59:23;2.60;;;2.30;;
10309;SDS011;5200;43.236;27.986;2022-08-01T15:01:50;3.65;;;2.40;;
10309;SDS011;5200;43.236;27.986;2022-08-01T15:04:17;2.40;;;2.20;;
10309;SDS011;5200;43.236;27.986;2022-08-01T15:06:57;3.25;;;2.63;;
10309;SDS011;5200;43.236;27.986;2022-08-01T15:09:42;3.55;;;2.85;;
10309;SDS011;5200;43.236;27.986;2022-08-01T15:12:10;2.38;;;2.25;;